sensor_id;sensor_type;location;lat;lon;timestamp;temperature;humidity
34472;DHT22;20710;49.976;19.836;2022-11-20T00:02:12;-2.70;80.04
34472;DHT22;20710;49.976;19.836;2022-11-20T00:08:13;-2.60;80.37
34472;DHT22;20710;49.976;19.836;2022-11-20T00:14:15;-2.61;80.10
34472;DHT22;20710;49.976;19.836;2022-11-20T00:20:16;-2.61;79.93
34472;DHT22;20710;49.976;19.836;2022-11-20T00:26:20;-2.63;79.50
34472;DHT22;20710;49.976;19.836;2022-11-20T00:32:21;-2.72;79.02
34472;DHT22;20710;49.976;19.836;2022-11-20T00:38:22;-2.77;79.06
34472;DHT22;20710;49.976;19.836;2022-11-20T00:44:24;-2.86;78.81
34472;DHT22;20710;49.976;19.836;2022-11-20T00:50:25;-2.96;78.72
34472;DHT22;20710;49.976;19.836;2022-11-20T00:56:27;-3.05;78.83
34472;DHT22;20710;49.976;19.836;2022-11-20T01:02:28;-3.26;78.58
34472;DHT22;20710;49.976;19.836;2022-11-20T01:08:34;-3.40;77.14
34472;DHT22;20710;49.976;19.836;2022-11-20T01:14:36;-3.41;78.39
34472;DHT22;20710;49.976;19.836;2022-11-20T01:20:37;-3.31;79.74
34472;DHT22;20710;49.976;19.836;2022-11-20T01:26:40;-3.26;79.76
34472;DHT22;20710;49.976;19.836;2022-11-20T01:32:42;-3.15;79.71
34472;DHT22;20710;49.976;19.836;2022-11-20T01:38:43;-3.23;79.46
34472;DHT22;20710;49.976;19.836;2022-11-20T01:51:01;-3.27;78.93
34472;DHT22;20710;49.976;19.836;2022-11-20T01:57:04;-3.31;78.86
34472;DHT22;20710;49.976;19.836;2022-11-20T02:03:16;-3.36;78.48
34472;DHT22;20710;49.976;19.836;2022-11-20T02:09:18;-3.54;78.45
34472;DHT22;20710;49.976;19.836;2022-11-20T02:15:19;-3.64;78.59
34472;DHT22;20710;49.976;19.836;2022-11-20T02:27:55;-3.67;78.72
34472;DHT22;20710;49.976;19.836;2022-11-20T02:33:57;-3.59;79.33
34472;DHT22;20710;49.976;19.836;2022-11-20T02:39:59;-3.56;79.28
34472;DHT22;20710;49.976;19.836;2022-11-20T02:46:00;-3.64;78.71
34472;DHT22;20710;49.976;19.836;2022-11-20T02:52:01;-3.75;78.19
34472;DHT22;20710;49.976;19.836;2022-11-20T02:58:03;-3.75;77.71
34472;DHT22;20710;49.976;19.836;2022-11-20T03:04:04;-3.90;77.68
34472;DHT22;20710;49.976;19.836;2022-11-20T03:10:06;-3.97;78.05
34472;DHT22;20710;49.976;19.836;2022-11-20T03:16:19;-4.00;78.51
34472;DHT22;20710;49.976;19.836;2022-11-20T03:22:17;-4.06;78.50
34472;DHT22;20710;49.976;19.836;2022-11-20T03:28:18;-4.09;77.86
34472;DHT22;20710;49.976;19.836;2022-11-20T03:34:19;-4.16;78.01
34472;DHT22;20710;49.976;19.836;2022-11-20T03:40:20;-4.16;78.53
34472;DHT22;20710;49.976;19.836;2022-11-20T03:46:22;-4.18;78.03
34472;DHT22;20710;49.976;19.836;2022-11-20T03:52:23;-4.20;78.09
34472;DHT22;20710;49.976;19.836;2022-11-20T03:58:24;-4.28;78.03
34472;DHT22;20710;49.976;19.836;2022-11-20T04:04:26;-4.34;78.13
34472;DHT22;20710;49.976;19.836;2022-11-20T04:10:27;-4.33;77.94
34472;DHT22;20710;49.976;19.836;2022-11-20T04:16:34;-4.23;78.65
34472;DHT22;20710;49.976;19.836;2022-11-20T04:22:36;-4.21;78.49
34472;DHT22;20710;49.976;19.836;2022-11-20T04:28:39;-4.17;78.31
34472;DHT22;20710;49.976;19.836;2022-11-20T04:34:40;-4.13;78.06
34472;DHT22;20710;49.976;19.836;2022-11-20T04:40:41;-4.11;78.21
34472;DHT22;20710;49.976;19.836;2022-11-20T04:46:43;-4.00;78.52
34472;DHT22;20710;49.976;19.836;2022-11-20T04:52:44;-3.96;78.07
34472;DHT22;20710;49.976;19.836;2022-11-20T04:58:45;-3.96;77.56
34472;DHT22;20710;49.976;19.836;2022-11-20T05:04:46;-4.10;77.11
34472;DHT22;20710;49.976;19.836;2022-11-20T05:10:48;-4.18;77.18
34472;DHT22;20710;49.976;19.836;2022-11-20T05:16:49;-4.20;77.00
34472;DHT22;20710;49.976;19.836;2022-11-20T05:22:50;-4.20;77.15
34472;DHT22;20710;49.976;19.836;2022-11-20T05:28:52;-4.18;77.17
34472;DHT22;20710;49.976;19.836;2022-11-20T05:34:53;-4.21;77.06
34472;DHT22;20710;49.976;19.836;2022-11-20T05:40:55;-4.27;77.09
34472;DHT22;20710;49.976;19.836;2022-11-20T05:46:56;-4.28;76.96
34472;DHT22;20710;49.976;19.836;2022-11-20T05:53:01;-4.31;76.94
34472;DHT22;20710;49.976;19.836;2022-11-20T05:59:02;-4.31;77.00
34472;DHT22;20710;49.976;19.836;2022-11-20T06:05:05;-4.34;76.55
34472;DHT22;20710;49.976;19.836;2022-11-20T06:11:09;-4.41;76.64
34472;DHT22;20710;49.976;19.836;2022-11-20T06:17:11;-4.42;76.75
34472;DHT22;20710;49.976;19.836;2022-11-20T06:23:12;-4.46;76.62
34472;DHT22;20710;49.976;19.836;2022-11-20T06:29:14;-4.48;77.14
34472;DHT22;20710;49.976;19.836;2022-11-20T06:35:18;-4.48;77.66
34472;DHT22;20710;49.976;19.836;2022-11-20T06:41:21;-4.48;77.68
34472;DHT22;20710;49.976;19.836;2022-11-20T06:47:23;-4.39;78.16
34472;DHT22;20710;49.976;19.836;2022-11-20T06:53:24;-4.38;78.13
34472;DHT22;20710;49.976;19.836;2022-11-20T06:59:26;-4.30;78.55
34472;DHT22;20710;49.976;19.836;2022-11-20T07:05:27;-4.24;78.54
34472;DHT22;20710;49.976;19.836;2022-11-20T07:11:28;-4.13;79.08
34472;DHT22;20710;49.976;19.836;2022-11-20T07:17:29;-3.96;79.74
34472;DHT22;20710;49.976;19.836;2022-11-20T07:23:31;-3.76;80.46
34472;DHT22;20710;49.976;19.836;2022-11-20T07:29:32;-3.61;79.73
34472;DHT22;20710;49.976;19.836;2022-11-20T07:35:33;-3.55;79.21
34472;DHT22;20710;49.976;19.836;2022-11-20T07:41:34;-3.58;78.32
34472;DHT22;20710;49.976;19.836;2022-11-20T07:47:36;-3.55;78.38
34472;DHT22;20710;49.976;19.836;2022-11-20T07:53:37;-3.48;78.43
34472;DHT22;20710;49.976;19.836;2022-11-20T07:59:38;-3.41;78.62
34472;DHT22;20710;49.976;19.836;2022-11-20T08:05:40;-3.38;78.60
34472;DHT22;20710;49.976;19.836;2022-11-20T08:11:42;-3.36;78.82
34472;DHT22;20710;49.976;19.836;2022-11-20T08:18:06;-3.30;79.35
34472;DHT22;20710;49.976;19.836;2022-11-20T08:24:08;-3.20;80.05
34472;DHT22;20710;49.976;19.836;2022-11-20T08:30:11;-3.12;80.49
34472;DHT22;20710;49.976;19.836;2022-11-20T08:36:12;-2.91;80.83
34472;DHT22;20710;49.976;19.836;2022-11-20T08:42:14;-2.64;80.98
34472;DHT22;20710;49.976;19.836;2022-11-20T08:48:15;-2.54;80.53
34472;DHT22;20710;49.976;19.836;2022-11-20T08:54:16;-2.35;80.25
34472;DHT22;20710;49.976;19.836;2022-11-20T09:00:19;-2.19;80.15
34472;DHT22;20710;49.976;19.836;2022-11-20T09:06:21;-2.03;80.09
34472;DHT22;20710;49.976;19.836;2022-11-20T09:12:22;-1.87;80.11
34472;DHT22;20710;49.976;19.836;2022-11-20T09:18:24;-1.75;79.98
34472;DHT22;20710;49.976;19.836;2022-11-20T09:24:26;-1.66;79.69
34472;DHT22;20710;49.976;19.836;2022-11-20T09:30:28;-1.67;79.62
34472;DHT22;20710;49.976;19.836;2022-11-20T09:36:30;-1.66;79.85
34472;DHT22;20710;49.976;19.836;2022-11-20T09:42:57;-1.62;79.95
34472;DHT22;20710;49.976;19.836;2022-11-20T09:55:31;-1.42;79.91
34472;DHT22;20710;49.976;19.836;2022-11-20T10:01:36;-1.31;80.14
34472;DHT22;20710;49.976;19.836;2022-11-20T10:14:34;-1.09;80.22
34472;DHT22;20710;49.976;19.836;2022-11-20T10:33:57;-0.73;79.81
34472;DHT22;20710;49.976;19.836;2022-11-20T10:40:18;-0.72;79.60
34472;DHT22;20710;49.976;19.836;2022-11-20T10:46:21;-0.72;79.39
34472;DHT22;20710;49.976;19.836;2022-11-20T10:52:47;-0.70;79.14
34472;DHT22;20710;49.976;19.836;2022-11-20T10:59:19;-0.66;79.16
34472;DHT22;20710;49.976;19.836;2022-11-20T11:05:33;-0.55;79.50
34472;DHT22;20710;49.976;19.836;2022-11-20T11:11:30;-0.42;79.79
34472;DHT22;20710;49.976;19.836;2022-11-20T11:17:34;-0.29;79.54
34472;DHT22;20710;49.976;19.836;2022-11-20T11:23:42;-0.19;79.09
34472;DHT22;20710;49.976;19.836;2022-11-20T11:29:47;-0.10;78.96
34472;DHT22;20710;49.976;19.836;2022-11-20T11:36:01;-0.06;78.83
34472;DHT22;20710;49.976;19.836;2022-11-20T11:42:03;0.03;78.95
34472;DHT22;20710;49.976;19.836;2022-11-20T11:48:07;0.09;79.21
34472;DHT22;20710;49.976;19.836;2022-11-20T11:54:15;0.14;79.23
34472;DHT22;20710;49.976;19.836;2022-11-20T12:00:20;0.24;79.19
34472;DHT22;20710;49.976;19.836;2022-11-20T12:06:23;0.38;79.16
34472;DHT22;20710;49.976;19.836;2022-11-20T12:12:38;0.47;79.11
34472;DHT22;20710;49.976;19.836;2022-11-20T12:18:41;0.58;79.11
34472;DHT22;20710;49.976;19.836;2022-11-20T12:25:16;0.61;78.83
34472;DHT22;20710;49.976;19.836;2022-11-20T12:45:08;0.76;79.09
34472;DHT22;20710;49.976;19.836;2022-11-20T12:51:39;0.76;79.03
34472;DHT22;20710;49.976;19.836;2022-11-20T12:57:49;0.79;79.25
34472;DHT22;20710;49.976;19.836;2022-11-20T13:03:51;0.86;79.27
34472;DHT22;20710;49.976;19.836;2022-11-20T13:09:55;0.86;79.15
34472;DHT22;20710;49.976;19.836;2022-11-20T13:17:05;0.87;79.30
34472;DHT22;20710;49.976;19.836;2022-11-20T13:22:52;0.86;79.78
34472;DHT22;20710;49.976;19.836;2022-11-20T13:29:25;0.91;80.16
34472;DHT22;20710;49.976;19.836;2022-11-20T13:35:12;0.87;80.17
34472;DHT22;20710;49.976;19.836;2022-11-20T13:41:36;0.77;80.11
34472;DHT22;20710;49.976;19.836;2022-11-20T13:47:47;0.77;80.28
34472;DHT22;20710;49.976;19.836;2022-11-20T14:00:21;0.84;80.48
34472;DHT22;20710;49.976;19.836;2022-11-20T14:06:30;0.89;80.50
34472;DHT22;20710;49.976;19.836;2022-11-20T14:12:37;0.89;80.63
34472;DHT22;20710;49.976;19.836;2022-11-20T14:18:41;0.90;80.64
34472;DHT22;20710;49.976;19.836;2022-11-20T14:24:42;0.84;80.61
34472;DHT22;20710;49.976;19.836;2022-11-20T14:30:47;0.72;80.32
34472;DHT22;20710;49.976;19.836;2022-11-20T14:36:56;0.59;80.68
34472;DHT22;20710;49.976;19.836;2022-11-20T14:42:59;0.42;80.72
34472;DHT22;20710;49.976;19.836;2022-11-20T14:49:01;0.27;80.59
34472;DHT22;20710;49.976;19.836;2022-11-20T14:55:13;0.13;81.00
34472;DHT22;20710;49.976;19.836;2022-11-20T15:01:12;0.03;81.02
34472;DHT22;20710;49.976;19.836;2022-11-20T15:07:26;-0.07;81.27
34472;DHT22;20710;49.976;19.836;2022-11-20T15:13:36;-0.10;81.25
34472;DHT22;20710;49.976;19.836;2022-11-20T15:19:38;-0.14;81.40
34472;DHT22;20710;49.976;19.836;2022-11-20T15:25:40;-0.22;81.39
34472;DHT22;20710;49.976;19.836;2022-11-20T15:31:42;-0.29;81.50
34472;DHT22;20710;49.976;19.836;2022-11-20T15:37:45;-0.28;81.77
34472;DHT22;20710;49.976;19.836;2022-11-20T15:43:47;-0.41;81.68
34472;DHT22;20710;49.976;19.836;2022-11-20T15:49:48;-0.39;81.82
34472;DHT22;20710;49.976;19.836;2022-11-20T15:55:49;-0.45;82.23
34472;DHT22;20710;49.976;19.836;2022-11-20T16:01:50;-0.47;82.47
34472;DHT22;20710;49.976;19.836;2022-11-20T16:07:52;-0.41;82.77
34472;DHT22;20710;49.976;19.836;2022-11-20T16:13:54;-0.28;83.11
34472;DHT22;20710;49.976;19.836;2022-11-20T16:20:13;-0.18;83.30
34472;DHT22;20710;49.976;19.836;2022-11-20T16:26:17;-0.13;83.47
34472;DHT22;20710;49.976;19.836;2022-11-20T16:32:19;-0.04;83.60
34472;DHT22;20710;49.976;19.836;2022-11-20T16:38:29;-0.01;83.64
34472;DHT22;20710;49.976;19.836;2022-11-20T16:44:30;0.06;83.57
34472;DHT22;20710;49.976;19.836;2022-11-20T16:50:32;0.12;83.58
34472;DHT22;20710;49.976;19.836;2022-11-20T16:56:51;0.12;83.39
34472;DHT22;20710;49.976;19.836;2022-11-20T17:03:03;0.14;83.52
34472;DHT22;20710;49.976;19.836;2022-11-20T17:09:12;0.12;83.49
34472;DHT22;20710;49.976;19.836;2022-11-20T17:15:14;0.13;83.66
34472;DHT22;20710;49.976;19.836;2022-11-20T17:21:17;0.16;83.70
34472;DHT22;20710;49.976;19.836;2022-11-20T17:27:37;0.18;83.85
34472;DHT22;20710;49.976;19.836;2022-11-20T17:33:52;0.18;83.82
34472;DHT22;20710;49.976;19.836;2022-11-20T17:39:56;0.17;83.83
34472;DHT22;20710;49.976;19.836;2022-11-20T17:45:57;0.12;83.66
34472;DHT22;20710;49.976;19.836;2022-11-20T17:51:59;0.12;83.57
34472;DHT22;20710;49.976;19.836;2022-11-20T17:58:00;0.12;83.71
34472;DHT22;20710;49.976;19.836;2022-11-20T18:04:04;0.10;83.71
34472;DHT22;20710;49.976;19.836;2022-11-20T18:10:07;0.06;83.62
34472;DHT22;20710;49.976;19.836;2022-11-20T18:16:11;0.01;83.67
34472;DHT22;20710;49.976;19.836;2022-11-20T18:22:17;-0.04;83.66
34472;DHT22;20710;49.976;19.836;2022-11-20T18:28:18;0.01;83.79
34472;DHT22;20710;49.976;19.836;2022-11-20T18:34:20;0.01;83.16
34472;DHT22;20710;49.976;19.836;2022-11-20T18:40:21;-0.03;83.14
34472;DHT22;20710;49.976;19.836;2022-11-20T18:46:22;-0.11;83.22
34472;DHT22;20710;49.976;19.836;2022-11-20T18:52:30;-0.21;83.49
34472;DHT22;20710;49.976;19.836;2022-11-20T18:58:33;-0.31;83.34
34472;DHT22;20710;49.976;19.836;2022-11-20T19:04:35;-0.41;83.31
34472;DHT22;20710;49.976;19.836;2022-11-20T19:10:36;-0.50;83.31
34472;DHT22;20710;49.976;19.836;2022-11-20T19:16:38;-0.67;82.99
34472;DHT22;20710;49.976;19.836;2022-11-20T19:22:39;-0.72;83.34
34472;DHT22;20710;49.976;19.836;2022-11-20T19:28:41;-0.83;83.20
34472;DHT22;20710;49.976;19.836;2022-11-20T19:34:42;-0.95;83.04
34472;DHT22;20710;49.976;19.836;2022-11-20T19:40:44;-1.12;82.93
34472;DHT22;20710;49.976;19.836;2022-11-20T19:46:45;-1.19;83.16
34472;DHT22;20710;49.976;19.836;2022-11-20T19:52:49;-1.17;83.28
34472;DHT22;20710;49.976;19.836;2022-11-20T19:58:52;-1.25;82.88
34472;DHT22;20710;49.976;19.836;2022-11-20T20:04:53;-1.33;82.97
34472;DHT22;20710;49.976;19.836;2022-11-20T20:10:54;-1.33;83.27
34472;DHT22;20710;49.976;19.836;2022-11-20T20:16:56;-1.40;83.17
34472;DHT22;20710;49.976;19.836;2022-11-20T20:22:57;-1.47;82.79
34472;DHT22;20710;49.976;19.836;2022-11-20T20:29:00;-1.46;83.04
34472;DHT22;20710;49.976;19.836;2022-11-20T20:35:03;-1.42;83.73
34472;DHT22;20710;49.976;19.836;2022-11-20T20:41:05;-1.46;83.30
34472;DHT22;20710;49.976;19.836;2022-11-20T20:47:07;-1.39;83.55
34472;DHT22;20710;49.976;19.836;2022-11-20T20:53:09;-1.28;83.94
34472;DHT22;20710;49.976;19.836;2022-11-20T20:59:10;-1.12;84.05
34472;DHT22;20710;49.976;19.836;2022-11-20T21:05:11;-1.08;84.03
34472;DHT22;20710;49.976;19.836;2022-11-20T21:11:15;-1.14;83.89
34472;DHT22;20710;49.976;19.836;2022-11-20T21:17:17;-1.11;83.86
34472;DHT22;20710;49.976;19.836;2022-11-20T21:23:18;-1.09;84.04
34472;DHT22;20710;49.976;19.836;2022-11-20T21:29:21;-1.01;84.25
34472;DHT22;20710;49.976;19.836;2022-11-20T21:35:23;-0.98;84.32
34472;DHT22;20710;49.976;19.836;2022-11-20T21:41:26;-0.88;84.42
34472;DHT22;20710;49.976;19.836;2022-11-20T21:47:27;-0.84;84.46
34472;DHT22;20710;49.976;19.836;2022-11-20T21:53:29;-0.78;84.40
34472;DHT22;20710;49.976;19.836;2022-11-20T21:59:31;-0.72;84.42
34472;DHT22;20710;49.976;19.836;2022-11-20T22:05:32;-0.66;84.47
34472;DHT22;20710;49.976;19.836;2022-11-20T22:11:33;-0.57;84.72
34472;DHT22;20710;49.976;19.836;2022-11-20T22:17:34;-0.53;84.83
34472;DHT22;20710;49.976;19.836;2022-11-20T22:23:54;-0.53;83.84
34472;DHT22;20710;49.976;19.836;2022-11-20T22:29:56;-0.46;84.49
34472;DHT22;20710;49.976;19.836;2022-11-20T22:36:09;-0.45;84.22
34472;DHT22;20710;49.976;19.836;2022-11-20T22:42:11;-0.45;83.47
34472;DHT22;20710;49.976;19.836;2022-11-20T22:48:12;-0.36;84.26
34472;DHT22;20710;49.976;19.836;2022-11-20T22:54:13;-0.32;84.54
34472;DHT22;20710;49.976;19.836;2022-11-20T23:00:18;-0.29;84.32
34472;DHT22;20710;49.976;19.836;2022-11-20T23:06:20;-0.24;84.47
34472;DHT22;20710;49.976;19.836;2022-11-20T23:12:22;-0.15;84.65
34472;DHT22;20710;49.976;19.836;2022-11-20T23:18:23;-0.10;84.87
34472;DHT22;20710;49.976;19.836;2022-11-20T23:24:24;-0.08;84.66
34472;DHT22;20710;49.976;19.836;2022-11-20T23:30:26;-0.04;84.89
34472;DHT22;20710;49.976;19.836;2022-11-20T23:36:27;-0.01;84.75
34472;DHT22;20710;49.976;19.836;2022-11-20T23:42:28;-0.03;84.51
34472;DHT22;20710;49.976;19.836;2022-11-20T23:48:32;-0.07;84.39
34472;DHT22;20710;49.976;19.836;2022-11-20T23:54:36;-0.08;84.48
